createdAt,value
2022-11-26T00:02:21.072Z,3.95
2022-11-26T00:05:13.293Z,4.32
2022-11-26T00:08:00.865Z,4.30
2022-11-26T00:10:51.364Z,4.44
2022-11-26T00:13:37.686Z,4.34
2022-11-26T00:16:24.023Z,4.46
2022-11-26T00:19:10.781Z,4.82
2022-11-26T00:21:57.263Z,4.83
2022-11-26T00:24:43.619Z,4.79
2022-11-26T00:27:29.927Z,4.77
2022-11-26T00:30:22.243Z,4.81
2022-11-26T00:33:08.672Z,4.88
2022-11-26T00:35:59.154Z,4.86
2022-11-26T00:38:53.735Z,4.84
2022-11-26T00:41:40.056Z,4.81
2022-11-26T00:44:26.358Z,4.62
2022-11-26T00:47:12.630Z,4.82
2022-11-26T00:49:58.936Z,4.83
2022-11-26T00:52:46.924Z,4.89
2022-11-26T00:55:34.648Z,4.95
2022-11-26T00:58:24.044Z,4.93
2022-11-26T01:01:13.560Z,4.97
2022-11-26T01:03:59.897Z,5.10
2022-11-26T01:06:46.875Z,5.36
2022-11-26T01:09:33.215Z,5.36
2022-11-26T01:12:19.552Z,5.19
2022-11-26T01:15:06.124Z,5.37
2022-11-26T01:17:53.462Z,5.22
2022-11-26T01:20:40.497Z,5.13
2022-11-26T01:23:26.846Z,5.13
2022-11-26T01:26:34.642Z,5.19
2022-11-26T01:29:21.305Z,5.07
2022-11-26T01:32:09.245Z,4.98
2022-11-26T01:34:55.329Z,5.12
2022-11-26T01:37:43.193Z,5.07
2022-11-26T01:40:45.289Z,5.35
2022-11-26T01:43:41.895Z,5.29
2022-11-26T01:46:30.793Z,5.16
2022-11-26T01:49:18.840Z,5.10
2022-11-26T01:52:11.336Z,5.02
2022-11-26T01:54:57.819Z,4.90
2022-11-26T01:57:44.643Z,5.16
2022-11-26T02:00:31.021Z,5.10
2022-11-26T02:03:19.323Z,4.91
2022-11-26T02:06:11.059Z,5.03
2022-11-26T02:09:00.428Z,5.01
2022-11-26T02:11:46.996Z,5.15
2022-11-26T02:14:36.921Z,5.09
2022-11-26T02:17:40.027Z,5.04
2022-11-26T02:20:45.060Z,4.94
2022-11-26T02:23:42.737Z,5.02
2022-11-26T02:26:47.469Z,4.99
2022-11-26T02:29:55.140Z,5.25
2022-11-26T02:32:59.223Z,5.14
2022-11-26T02:35:50.308Z,5.20
2022-11-26T02:38:38.233Z,5.04
2022-11-26T02:41:24.801Z,5.15
2022-11-26T02:44:12.120Z,4.99
2022-11-26T02:47:06.260Z,5.04
2022-11-26T02:49:54.097Z,5.12
2022-11-26T02:52:42.591Z,4.90
2022-11-26T02:55:33.621Z,5.06
2022-11-26T02:58:20.486Z,4.88
2022-11-26T03:01:15.571Z,5.11
2022-11-26T03:04:07.840Z,5.19
2022-11-26T03:06:57.661Z,5.20
2022-11-26T03:09:56.821Z,5.19
2022-11-26T03:12:42.944Z,5.02
2022-11-26T03:15:29.087Z,5.25
2022-11-26T03:18:15.621Z,5.06
2022-11-26T03:21:02.112Z,5.13
2022-11-26T03:23:48.321Z,4.94
2022-11-26T03:26:34.568Z,5.04
2022-11-26T03:29:20.890Z,4.77
2022-11-26T03:32:07.924Z,5.03
2022-11-26T03:34:54.299Z,4.79
2022-11-26T03:37:40.598Z,5.05
2022-11-26T03:40:26.832Z,5.07
2022-11-26T03:43:12.908Z,5.09
2022-11-26T03:45:59.340Z,5.19
2022-11-26T03:48:45.901Z,5.08
2022-11-26T03:51:32.462Z,5.06
2022-11-26T03:54:19.087Z,5.21
2022-11-26T03:57:05.349Z,5.03
2022-11-26T03:59:51.681Z,5.43
2022-11-26T04:02:37.973Z,5.16
2022-11-26T04:05:24.489Z,5.31
2022-11-26T04:08:10.974Z,5.14
2022-11-26T04:10:57.597Z,5.40
2022-11-26T04:13:43.909Z,5.35
2022-11-26T04:16:30.256Z,5.24
2022-11-26T04:19:16.683Z,4.93
2022-11-26T04:22:03.151Z,4.98
2022-11-26T04:24:49.559Z,4.94
2022-11-26T04:27:35.895Z,4.94
2022-11-26T04:30:22.900Z,5.03
2022-11-26T04:33:09.740Z,5.04
2022-11-26T04:35:56.389Z,4.82
2022-11-26T04:38:42.637Z,4.90
2022-11-26T04:41:28.897Z,4.80
2022-11-26T04:44:15.177Z,4.64
2022-11-26T04:47:01.449Z,4.65
2022-11-26T04:49:47.816Z,4.44
2022-11-26T04:52:33.936Z,4.20
2022-11-26T04:55:20.240Z,3.96
2022-11-26T04:58:07.140Z,4.02
2022-11-26T05:00:53.486Z,4.07
2022-11-26T05:03:40.079Z,3.92
2022-11-26T05:06:26.417Z,3.96
2022-11-26T05:09:12.438Z,3.77
2022-11-26T05:11:58.673Z,3.77
2022-11-26T05:14:44.866Z,3.55
2022-11-26T05:17:31.488Z,3.55
2022-11-26T05:20:17.984Z,3.46
2022-11-26T05:23:04.639Z,3.47
2022-11-26T05:25:51.342Z,3.31
2022-11-26T05:28:37.824Z,3.39
2022-11-26T05:31:24.025Z,3.09
2022-11-26T05:34:10.359Z,3.06
2022-11-26T05:36:56.808Z,2.77
2022-11-26T05:39:43.013Z,2.82
2022-11-26T05:42:29.470Z,2.81
2022-11-26T05:45:16.502Z,2.54
2022-11-26T05:48:02.816Z,2.70
2022-11-26T05:50:54.331Z,2.44
2022-11-26T05:53:41.152Z,2.55
2022-11-26T05:56:27.585Z,2.51
2022-11-26T05:59:13.793Z,2.40
2022-11-26T06:02:00.126Z,2.22
2022-11-26T06:04:46.772Z,2.20
2022-11-26T06:07:33.132Z,2.38
2022-11-26T06:10:19.809Z,2.29
2022-11-26T06:13:06.224Z,2.03
2022-11-26T06:15:52.649Z,1.80
2022-11-26T06:18:39.622Z,2.05
2022-11-26T06:21:25.879Z,2.12
2022-11-26T06:24:11.963Z,2.08
2022-11-26T06:26:58.183Z,2.29
2022-11-26T06:29:44.995Z,2.28
2022-11-26T06:32:31.853Z,2.05
2022-11-26T06:35:18.329Z,2.00
2022-11-26T06:38:05.124Z,1.63
2022-11-26T06:41:02.916Z,1.62
2022-11-26T06:43:49.660Z,1.54
2022-11-26T06:46:36.447Z,1.49
2022-11-26T06:49:22.800Z,1.68
2022-11-26T06:52:09.340Z,1.51
2022-11-26T06:54:55.462Z,1.61
2022-11-26T06:57:41.699Z,1.81
2022-11-26T07:00:28.070Z,1.73
2022-11-26T07:03:14.324Z,1.79
2022-11-26T07:06:00.680Z,1.81
2022-11-26T07:08:48.095Z,1.54
2022-11-26T07:11:35.669Z,1.77
2022-11-26T07:14:22.627Z,1.73
2022-11-26T07:17:09.537Z,1.75
2022-11-26T07:19:55.732Z,1.69
2022-11-26T07:22:41.984Z,1.85
2022-11-26T07:25:29.707Z,1.96
2022-11-26T07:28:16.241Z,1.77
2022-11-26T07:31:16.245Z,2.01
2022-11-26T07:34:03.895Z,1.91
2022-11-26T07:36:53.973Z,2.24
2022-11-26T07:39:43.049Z,1.96
2022-11-26T07:42:33.676Z,1.89
2022-11-26T07:45:20.261Z,1.43
2022-11-26T07:48:06.989Z,2.10
2022-11-26T07:50:53.377Z,2.03
2022-11-26T07:53:39.642Z,1.88
2022-11-26T07:56:27.161Z,2.04
2022-11-26T07:59:13.668Z,2.13
2022-11-26T08:02:00.261Z,2.18
2022-11-26T08:04:47.078Z,2.43
2022-11-26T08:07:35.038Z,2.35
2022-11-26T08:10:21.656Z,2.43
2022-11-26T08:13:08.197Z,2.36
2022-11-26T08:15:54.477Z,2.41
2022-11-26T08:18:41.975Z,2.48
2022-11-26T08:21:28.811Z,2.63
2022-11-26T08:24:18.919Z,2.74
2022-11-26T08:27:05.482Z,2.65
2022-11-26T08:29:51.921Z,2.69
2022-11-26T08:32:38.203Z,2.87
2022-11-26T08:35:38.626Z,2.91
2022-11-26T08:38:31.583Z,2.92
2022-11-26T08:41:18.119Z,3.03
2022-11-26T08:44:07.083Z,2.78
2022-11-26T08:46:54.286Z,3.04
2022-11-26T08:49:40.785Z,2.90
2022-11-26T08:52:27.495Z,3.34
2022-11-26T08:55:14.107Z,3.25
2022-11-26T08:58:00.687Z,3.18
2022-11-26T09:00:47.263Z,3.55
2022-11-26T09:03:33.518Z,3.56
2022-11-26T09:06:21.312Z,3.77
2022-11-26T09:09:15.057Z,3.79
2022-11-26T09:12:02.469Z,3.90
2022-11-26T09:14:49.069Z,3.97
2022-11-26T09:17:35.633Z,4.24
2022-11-26T09:20:22.304Z,4.06
2022-11-26T09:23:08.743Z,4.50
2022-11-26T09:25:55.422Z,4.42
2022-11-26T09:28:41.773Z,4.79
2022-11-26T09:31:28.327Z,5.02
2022-11-26T09:34:15.808Z,5.24
2022-11-26T09:37:02.574Z,5.29
2022-11-26T09:39:50.745Z,5.16
2022-11-26T09:42:59.234Z,5.40
2022-11-26T09:45:55.701Z,5.41
2022-11-26T09:48:43.265Z,5.49
2022-11-26T09:51:32.848Z,5.72
2022-11-26T09:54:23.038Z,6.13
2022-11-26T09:57:21.998Z,6.12
2022-11-26T10:00:32.774Z,6.26
2022-11-26T10:03:24.468Z,6.32
2022-11-26T10:06:19.801Z,6.38
2022-11-26T10:09:23.364Z,6.53
2022-11-26T10:12:25.534Z,6.71
2022-11-26T10:15:26.118Z,6.62
2022-11-26T10:18:42.384Z,6.56
2022-11-26T10:21:57.007Z,6.59
2022-11-26T10:24:42.010Z,6.79
2022-11-26T10:27:34.297Z,7.17
2022-11-26T10:30:30.689Z,7.25
2022-11-26T10:33:20.248Z,7.39
2022-11-26T10:36:16.446Z,7.81
2022-11-26T10:39:03.310Z,7.86
2022-11-26T10:41:50.156Z,7.95
2022-11-26T10:44:40.785Z,8.18
2022-11-26T10:47:29.827Z,7.95
2022-11-26T10:50:46.782Z,8.10
2022-11-26T10:54:00.630Z,8.25
2022-11-26T10:56:47.806Z,8.04
2022-11-26T10:59:43.447Z,8.09
2022-11-26T11:02:32.377Z,8.08
2022-11-26T11:05:20.374Z,7.91
2022-11-26T11:08:13.042Z,8.24
2022-11-26T11:11:02.392Z,8.08
2022-11-26T11:13:49.784Z,8.11
2022-11-26T11:16:43.253Z,8.21
2022-11-26T11:19:30.733Z,8.41
2022-11-26T11:22:20.985Z,8.62
2022-11-26T11:25:21.900Z,8.52
2022-11-26T11:28:18.366Z,8.64
2022-11-26T11:31:17.979Z,8.51
2022-11-26T11:34:33.885Z,8.87
2022-11-26T11:37:21.859Z,9.06
2022-11-26T11:40:18.139Z,9.16
2022-11-26T11:43:06.976Z,9.32
2022-11-26T11:46:13.547Z,9.27
2022-11-26T11:49:16.210Z,8.82
2022-11-26T11:52:35.711Z,9.02
2022-11-26T11:56:02.700Z,8.98
2022-11-26T11:59:47.495Z,8.98
2022-11-26T12:03:04.882Z,9.00
2022-11-26T12:06:00.505Z,9.09
2022-11-26T12:08:55.786Z,9.22
2022-11-26T12:11:52.112Z,9.17
2022-11-26T12:14:47.720Z,9.13
2022-11-26T12:17:43.666Z,9.49
2022-11-26T12:20:41.704Z,9.43
2022-11-26T12:23:53.512Z,9.52
2022-11-26T12:26:39.892Z,9.44
2022-11-26T12:29:36.961Z,9.14
2022-11-26T12:32:49.325Z,9.24
2022-11-26T12:35:40.128Z,9.35
2022-11-26T12:38:34.896Z,9.37
2022-11-26T12:41:27.355Z,9.64
2022-11-26T12:44:22.330Z,9.55
2022-11-26T12:47:26.056Z,9.62
2022-11-26T12:50:20.854Z,9.66
2022-11-26T12:53:51.720Z,9.60
2022-11-26T12:56:50.924Z,9.63
2022-11-26T12:59:44.098Z,9.67
2022-11-26T13:02:32.000Z,9.63
2022-11-26T13:05:20.802Z,9.92
2022-11-26T13:08:26.485Z,10.05
2022-11-26T13:11:31.333Z,10.00
2022-11-26T13:14:35.146Z,9.80
2022-11-26T13:17:37.159Z,9.92
2022-11-26T13:20:52.420Z,9.65
2022-11-26T13:23:50.609Z,9.80
2022-11-26T13:26:45.904Z,9.78
2022-11-26T13:29:35.678Z,9.65
2022-11-26T13:32:42.802Z,9.51
2022-11-26T13:35:51.210Z,9.61
2022-11-26T13:38:53.170Z,9.39
2022-11-26T13:42:14.821Z,9.30
2022-11-26T13:45:45.352Z,8.93
2022-11-26T13:48:40.428Z,9.11
2022-11-26T13:51:30.925Z,9.11
2022-11-26T13:54:41.905Z,9.01
2022-11-26T13:57:39.441Z,8.92
2022-11-26T14:00:33.667Z,8.83
2022-11-26T14:03:45.928Z,8.62
2022-11-26T14:06:32.768Z,8.43
2022-11-26T14:09:45.156Z,7.66
2022-11-26T14:13:02.758Z,8.45
2022-11-26T14:15:55.503Z,8.60
2022-11-26T14:19:02.816Z,8.61
2022-11-26T14:21:59.647Z,8.51
2022-11-26T14:24:58.926Z,8.65
2022-11-26T14:27:55.613Z,8.54
2022-11-26T14:30:41.748Z,8.34
2022-11-26T14:33:30.350Z,7.87
2022-11-26T14:36:23.000Z,7.77
2022-11-26T14:39:09.279Z,7.80
2022-11-26T14:42:03.815Z,8.10
2022-11-26T14:45:15.686Z,7.92
2022-11-26T14:48:03.943Z,8.07
2022-11-26T14:50:51.653Z,7.77
2022-11-26T14:53:46.803Z,7.68
2022-11-26T14:56:41.831Z,7.82
2022-11-26T14:59:31.935Z,7.46
2022-11-26T15:02:23.889Z,7.47
2022-11-26T15:05:15.183Z,7.42
2022-11-26T15:08:04.754Z,7.66
2022-11-26T15:11:21.371Z,7.69
2022-11-26T15:14:29.783Z,7.46
2022-11-26T15:17:19.251Z,7.57
2022-11-26T15:20:08.355Z,7.55
2022-11-26T15:22:58.290Z,7.56
2022-11-26T15:25:50.924Z,7.29
2022-11-26T15:28:38.682Z,7.08
2022-11-26T15:31:25.381Z,6.76
2022-11-26T15:34:15.268Z,6.51
2022-11-26T15:37:01.579Z,6.23
2022-11-26T15:39:47.829Z,6.38
2022-11-26T15:42:34.344Z,6.24
2022-11-26T15:45:23.038Z,6.50
2022-11-26T15:48:51.943Z,6.42
2022-11-26T15:51:49.956Z,6.44
2022-11-26T15:55:04.550Z,6.67
2022-11-26T15:57:51.729Z,6.68
2022-11-26T16:00:42.269Z,6.32
2022-11-26T16:03:41.325Z,6.49
2022-11-26T16:06:32.390Z,6.45
2022-11-26T16:09:34.348Z,6.29
2022-11-26T16:12:33.195Z,6.36
2022-11-26T16:15:21.020Z,6.37
2022-11-26T16:18:16.393Z,6.61
2022-11-26T16:21:07.298Z,6.43
2022-11-26T16:24:07.299Z,6.58
2022-11-26T16:26:58.248Z,6.59
2022-11-26T16:29:45.455Z,6.59
2022-11-26T16:32:31.772Z,6.35
2022-11-26T16:35:44.218Z,6.41
2022-11-26T16:38:26.524Z,6.39
2022-11-26T16:41:13.876Z,6.28
2022-11-26T16:44:00.273Z,6.28
2022-11-26T16:46:48.826Z,6.46
2022-11-26T16:49:35.015Z,6.28
2022-11-26T16:52:21.892Z,5.95
2022-11-26T16:55:13.735Z,5.85
2022-11-26T16:58:02.334Z,5.75
2022-11-26T17:00:51.099Z,5.63
2022-11-26T17:03:37.690Z,5.75
2022-11-26T17:06:27.872Z,5.93
2022-11-26T17:09:19.267Z,5.94
2022-11-26T17:12:06.509Z,5.88
2022-11-26T17:17:45.053Z,5.69
2022-11-26T17:20:31.483Z,5.37
2022-11-26T17:23:18.739Z,5.32
2022-11-26T17:26:31.688Z,5.36
2022-11-26T17:29:17.995Z,5.14
2022-11-26T17:32:04.992Z,5.27
2022-11-26T17:34:51.584Z,4.96
2022-11-26T17:37:38.206Z,4.92
2022-11-26T17:40:24.950Z,4.88
2022-11-26T17:43:13.273Z,4.68
2022-11-26T17:46:02.137Z,4.65
2022-11-26T17:48:49.960Z,4.71
2022-11-26T17:51:37.376Z,4.73
2022-11-26T17:54:23.559Z,4.38
2022-11-26T17:57:11.194Z,4.23
2022-11-26T17:59:57.876Z,4.15
2022-11-26T18:02:46.223Z,4.34
2022-11-26T18:05:33.061Z,4.20
2022-11-26T18:08:20.494Z,3.90
2022-11-26T18:11:06.844Z,4.02
2022-11-26T18:13:53.308Z,3.83
2022-11-26T18:16:40.188Z,3.91
2022-11-26T18:19:26.955Z,3.85
2022-11-26T18:22:16.704Z,3.79
2022-11-26T18:25:03.473Z,3.57
2022-11-26T18:27:51.299Z,3.51
2022-11-26T18:30:37.649Z,3.42
2022-11-26T18:33:24.245Z,3.20
2022-11-26T18:36:10.924Z,2.89
2022-11-26T18:38:57.634Z,3.03
2022-11-26T18:41:43.952Z,2.97
2022-11-26T18:44:30.341Z,2.83
2022-11-26T18:47:16.773Z,2.72
2022-11-26T18:50:03.680Z,2.74
2022-11-26T18:52:49.835Z,2.59
2022-11-26T18:55:39.924Z,2.66
2022-11-26T18:58:26.709Z,2.54
2022-11-26T19:01:14.255Z,2.55
2022-11-26T19:04:01.901Z,2.17
2022-11-26T19:06:48.276Z,2.45
2022-11-26T19:09:34.587Z,2.39
2022-11-26T19:12:20.855Z,2.24
2022-11-26T19:15:08.328Z,2.36
2022-11-26T19:17:55.082Z,2.36
2022-11-26T19:20:56.333Z,2.33
2022-11-26T19:23:42.976Z,2.24
